Time;durP1;ratioP1;P1;durP2;ratioP2;P2;SDS_P1;SDS_P2;PMS_P1;PMS_P2;Temp;Humidity;BMP_temperature;BMP_pressure;BME280_temperature;BME280_humidity;BME280_pressure;Samples;Min_cycle;Max_cycle;Signal;HPM_P1;HPM_P2
2023/10/17 00:05:10;;;;;;;1.87;0.50;;;7.10;99.90;;;;;;1939825;72;27045;-87
2023/10/17 00:08:00;;;;;;;2.80;0.53;;;7.10;99.90;;;;;;1901928;73;25220;-89
2023/10/17 00:10:48;;;;;;;2.10;0.50;;;7.10;99.90;;;;;;1864392;75;25714;-87
2023/10/17 00:13:38;;;;;;;2.07;0.67;;;7.20;99.90;;;;;;1809294;77;25288;-87
2023/10/17 00:16:29;;;;;;;1.80;0.53;;;7.30;99.90;;;;;;1905376;73;25282;-89
2023/10/17 00:19:18;;;;;;;1.13;0.50;;;7.30;99.90;;;;;;1863458;75;25227;-87
2023/10/17 00:22:07;;;;;;;1.97;0.57;;;7.30;99.90;;;;;;1840358;76;25283;-87
2023/10/17 00:25:09;;;;;;;0.70;0.70;;;7.30;99.90;;;;;;1905048;75;25198;-87
2023/10/17 00:27:45;;;;;;;0.57;0.57;;;7.30;99.90;;;;;;1861779;75;25245;-89
2023/10/17 00:30:33;;;;;;;1.30;0.43;;;7.30;99.90;;;;;;1811706;77;25900;-89
2023/10/17 00:33:23;;;;;;;1.93;0.70;;;7.30;99.90;;;;;;1909874;73;25675;-87
2023/10/17 00:38:54;;;;;;;0.47;0.47;;;7.40;99.90;;;;;;1932424;72;27032;-87
2023/10/17 00:41:50;;;;;;;0.90;0.60;;;7.30;99.90;;;;;;1893747;74;25802;-87
2023/10/17 00:44:40;;;;;;;2.37;0.70;;;7.30;99.90;;;;;;1882483;75;25280;-87
2023/10/17 00:47:29;;;;;;;1.53;0.40;;;7.30;99.90;;;;;;1847568;76;25195;-87
2023/10/17 00:50:20;;;;;;;1.33;0.60;;;7.30;99.90;;;;;;1881854;75;25207;-87
2023/10/17 00:53:08;;;;;;;0.73;0.43;;;7.20;99.90;;;;;;1847045;77;25266;-88
2023/10/17 00:55:57;;;;;;;1.13;0.37;;;7.10;99.90;;;;;;1875345;75;25226;-87
2023/10/17 00:58:46;;;;;;;2.23;0.50;;;7.10;99.90;;;;;;1848560;76;25286;-88
2023/10/17 01:01:35;;;;;;;0.47;0.47;;;7.00;99.90;;;;;;1868897;75;25352;-88
2023/10/17 01:04:24;;;;;;;0.70;0.60;;;7.10;99.90;;;;;;1815032;77;25279;-88
2023/10/17 01:07:23;;;;;;;1.77;0.60;;;7.00;99.90;;;;;;1816196;77;25207;-88
2023/10/17 01:10:10;;;;;;;0.70;0.60;;;7.00;99.90;;;;;;1885415;75;25194;-88
2023/10/17 01:13:00;;;;;;;2.57;0.70;;;7.00;99.90;;;;;;1909685;73;26480;-88
2023/10/17 01:15:51;;;;;;;0.97;0.80;;;7.10;99.90;;;;;;1904538;73;25241;-88
2023/10/17 01:18:37;;;;;;;2.10;0.70;;;7.10;99.90;;;;;;1872281;75;25252;-88
2023/10/17 01:24:06;;;;;;;0.93;0.60;;;7.10;99.90;;;;;;1931796;72;27103;-87
2023/10/17 01:26:56;;;;;;;0.50;0.50;;;7.20;99.90;;;;;;1922593;73;25233;-87
2023/10/17 01:29:44;;;;;;;3.40;0.60;;;7.20;99.90;;;;;;1916480;74;25249;-87
2023/10/17 01:32:33;;;;;;;1.23;0.70;;;7.20;99.90;;;;;;1910160;73;25722;-87
2023/10/17 01:35:22;;;;;;;0.30;0.30;;;7.30;99.90;;;;;;1910186;73;25150;-87
2023/10/17 01:38:12;;;;;;;1.80;0.70;;;7.30;99.90;;;;;;1900273;74;25646;-87
2023/10/17 01:41:02;;;;;;;0.70;0.50;;;7.30;99.90;;;;;;1896426;74;25213;-87
2023/10/17 01:43:51;;;;;;;2.43;0.80;;;7.30;99.90;;;;;;1888500;75;25670;-88
2023/10/17 01:46:43;;;;;;;2.60;1.10;;;7.30;99.90;;;;;;1884453;75;25298;-88
2023/10/17 01:49:31;;;;;;;2.30;0.40;;;7.30;99.90;;;;;;1878947;75;25795;-87
2023/10/17 01:52:20;;;;;;;0.67;0.60;;;7.30;99.90;;;;;;1875710;75;25223;-88
2023/10/17 01:55:11;;;;;;;2.30;0.60;;;7.30;99.90;;;;;;1892717;75;25276;-87
2023/10/17 01:58:06;;;;;;;2.13;0.57;;;7.30;99.90;;;;;;1888453;75;25214;-87
2023/10/17 02:00:54;;;;;;;1.10;0.50;;;7.30;99.90;;;;;;1877583;75;25232;-87
2023/10/17 02:03:42;;;;;;;4.87;0.60;;;7.30;99.90;;;;;;1883827;75;25262;-87
2023/10/17 02:09:24;;;;;;;1.80;0.50;;;7.30;99.90;;;;;;1966224;72;27118;-87
2023/10/17 02:12:13;;;;;;;2.60;0.53;;;7.40;99.90;;;;;;1862238;76;25304;-89
2023/10/17 02:15:05;;;;;;;3.70;0.73;;;7.30;99.90;;;;;;1919607;73;25714;-87
2023/10/17 02:17:57;;;;;;;1.33;0.50;;;7.40;99.90;;;;;;1917153;73;25270;-89
2023/10/17 02:20:51;;;;;;;3.77;0.83;;;7.40;99.90;;;;;;1939852;73;25253;-87
2023/10/17 02:23:48;;;;;;;1.70;0.57;;;7.40;99.90;;;;;;1937193;73;25694;-89
2023/10/17 02:26:31;;;;;;;0.67;0.60;;;7.40;99.90;;;;;;1929197;73;25806;-89
2023/10/17 02:29:23;;;;;;;0.53;0.47;;;7.40;99.90;;;;;;1930882;73;25304;-89
2023/10/17 02:32:12;;;;;;;1.53;0.50;;;7.40;99.90;;;;;;1916805;73;25217;-87
2023/10/17 02:37:48;;;;;;;2.53;0.60;;;7.40;99.90;;;;;;1973390;71;27098;-87
2023/10/17 02:40:40;;;;;;;0.60;0.60;;;7.40;99.90;;;;;;1907790;73;25182;-87
2023/10/17 02:43:29;;;;;;;1.23;0.50;;;7.40;99.90;;;;;;1940289;73;25195;-87
2023/10/17 02:49:01;;;;;;;0.60;0.53;;;7.50;99.90;;;;;;1938435;72;27134;-87
2023/10/17 02:51:53;;;;;;;0.60;0.50;;;7.50;99.90;;;;;;1867523;75;25338;-87
2023/10/17 02:57:20;;;;;;;4.67;0.80;;;7.60;99.90;;;;;;1926658;72;27251;-86
2023/10/17 03:00:21;;;;;;;2.83;0.60;;;7.60;99.90;;;;;;1903934;73;25297;-89
2023/10/17 03:03:12;;;;;;;1.17;0.40;;;7.60;99.90;;;;;;1856271;76;25699;-89
2023/10/17 03:06:05;;;;;;;0.80;0.50;;;7.60;99.90;;;;;;1884227;74;25245;-89
2023/10/17 03:09:00;;;;;;;2.10;0.50;;;7.60;99.90;;;;;;1924693;73;25456;-88
2023/10/17 03:11:51;;;;;;;1.23;0.37;;;7.60;99.90;;;;;;1921693;73;25274;-89
2023/10/17 03:14:49;;;;;;;2.50;0.50;;;7.60;99.90;;;;;;1940667;73;25207;-89
2023/10/17 03:17:30;;;;;;;0.50;0.50;;;7.60;99.90;;;;;;1897600;73;25207;-89
2023/10/17 03:20:19;;;;;;;0.40;0.40;;;7.60;99.90;;;;;;1857701;76;25724;-89
2023/10/17 03:23:08;;;;;;;1.50;0.50;;;7.70;99.90;;;;;;1820856;78;25292;-89
2023/10/17 03:26:00;;;;;;;2.77;0.73;;;7.70;99.90;;;;;;1850029;76;25224;-89
2023/10/17 03:28:49;;;;;;;0.63;0.40;;;7.70;99.90;;;;;;1859511;75;25714;-89
2023/10/17 03:31:39;;;;;;;2.37;0.63;;;7.70;99.90;;;;;;1846151;76;25949;-89
2023/10/17 03:34:35;;;;;;;0.50;0.50;;;7.70;99.90;;;;;;1859087;76;25278;-89
2023/10/17 03:37:30;;;;;;;1.87;0.67;;;7.70;99.90;;;;;;1837637;76;25271;-89
2023/10/17 03:40:19;;;;;;;1.07;0.60;;;7.70;99.90;;;;;;1844459;76;25759;-87
2023/10/17 03:46:03;;;;;;;1.33;0.57;;;7.70;99.90;;;;;;1959794;72;27067;-88
2023/10/17 03:51:30;;;;;;;1.23;0.63;;;7.70;99.90;;;;;;1956729;72;27115;-87
2023/10/17 03:54:18;;;;;;;1.33;0.50;;;7.80;99.90;;;;;;1918090;73;25836;-88
2023/10/17 03:57:15;;;;;;;3.07;0.60;;;7.80;99.90;;;;;;1895525;75;25162;-88
2023/10/17 03:59:58;;;;;;;1.67;0.50;;;7.80;99.90;;;;;;1867924;76;25329;-87
2023/10/17 04:02:49;;;;;;;1.53;0.40;;;7.80;99.90;;;;;;1895173;75;25222;-88
2023/10/17 04:05:38;;;;;;;0.87;0.50;;;7.80;99.90;;;;;;1890985;75;25278;-88
2023/10/17 04:08:31;;;;;;;3.07;0.40;;;7.80;99.90;;;;;;1898158;75;25721;-88
2023/10/17 04:11:19;;;;;;;2.10;0.53;;;7.80;99.90;;;;;;1895529;75;25339;-88
2023/10/17 04:14:10;;;;;;;1.37;0.60;;;7.80;99.90;;;;;;1891308;75;25232;-88
2023/10/17 04:19:48;;;;;;;2.20;0.50;;;7.80;99.90;;;;;;1953467;72;26957;-87
2023/10/17 04:22:38;;;;;;;2.03;0.50;;;7.80;99.90;;;;;;1946042;73;25194;-87
2023/10/17 04:25:34;;;;;;;1.00;0.57;;;7.80;99.90;;;;;;1928553;73;25655;-88
2023/10/17 04:28:26;;;;;;;1.40;0.60;;;7.80;99.90;;;;;;1937158;73;25312;-88
2023/10/17 04:34:05;;;;;;;1.67;0.63;;;7.80;99.90;;;;;;1944972;72;26898;-87
2023/10/17 04:39:35;;;;;;;1.00;0.50;;;7.80;99.90;;;;;;1947294;72;27123;-87
2023/10/17 04:42:47;;;;;;;3.73;0.60;;;7.90;99.90;;;;;;1901771;75;25264;-87
2023/10/17 04:45:19;;;;;;;1.90;0.50;;;7.90;99.90;;;;;;1888316;75;25259;-88
2023/10/17 04:48:11;;;;;;;3.00;0.50;;;7.90;99.90;;;;;;1902692;75;25630;-88
2023/10/17 04:51:12;;;;;;;2.20;0.70;;;7.90;99.90;;;;;;1908274;75;25163;-88
2023/10/17 04:53:50;;;;;;;1.13;0.60;;;7.90;99.90;;;;;;1898548;75;25192;-88
2023/10/17 04:56:52;;;;;;;2.77;0.70;;;7.90;99.90;;;;;;1905097;75;25718;-88
2023/10/17 04:59:55;;;;;;;6.13;0.50;;;8.00;99.90;;;;;;1901226;75;25704;-87
2023/10/17 05:02:54;;;;;;;3.23;0.50;;;8.00;99.90;;;;;;1893994;74;25198;-87
2023/10/17 05:05:39;;;;;;;4.37;0.60;;;8.10;99.90;;;;;;1903266;75;25767;-87
2023/10/17 05:09:00;;;;;;;2.27;0.60;;;8.10;99.90;;;;;;1905317;74;26973;-87
2023/10/17 06:19:21;;;;;;;1.27;0.60;;;8.40;99.90;;;;;;1904325;73;25329;-87
2023/10/17 06:34:04;;;;;;;3.60;0.60;;;8.50;99.90;;;;;;1942117;72;27194;-87
2023/10/17 06:36:59;;;;;;;1.53;0.60;;;8.50;99.90;;;;;;1912260;75;25962;-87
2023/10/17 06:39:47;;;;;;;5.70;0.80;;;8.50;99.90;;;;;;1870892;76;25182;-88
2023/10/17 06:42:39;;;;;;;2.57;0.63;;;8.60;99.90;;;;;;1802802;78;25409;-88
2023/10/17 06:48:13;;;;;;;4.50;1.00;;;8.50;99.90;;;;;;1924334;72;27530;-87
2023/10/17 06:51:30;;;;;;;0.93;0.70;;;8.60;99.90;;;;;;1903142;75;25148;-87
2023/10/17 06:54:25;;;;;;;4.00;0.73;;;8.60;99.90;;;;;;1889132;75;25264;-87
2023/10/17 06:57:19;;;;;;;2.33;0.67;;;8.70;99.90;;;;;;1849862;76;25736;-87
2023/10/17 07:00:15;;;;;;;1.83;0.53;;;8.70;99.90;;;;;;1804196;78;25654;-87
2023/10/17 07:02:56;;;;;;;3.50;0.70;;;8.70;99.90;;;;;;1843820;76;25278;-87
2023/10/17 07:05:49;;;;;;;2.20;0.70;;;8.80;99.90;;;;;;1835746;76;25274;-87
2023/10/17 07:08:36;;;;;;;1.50;0.60;;;8.80;99.90;;;;;;1838167;77;25189;-89
2023/10/17 07:11:30;;;;;;;4.20;0.70;;;8.90;99.90;;;;;;1828009;77;25687;-87
2023/10/17 07:17:17;;;;;;;3.17;0.80;;;9.20;99.90;;;;;;1942896;72;27194;-87
2023/10/17 07:20:00;;;;;;;1.60;0.50;;;9.30;99.90;;;;;;1874316;76;25326;-87
2023/10/17 07:22:53;;;;;;;3.00;0.70;;;9.40;99.90;;;;;;1926249;73;25325;-87
2023/10/17 07:28:28;;;;;;;2.37;0.70;;;9.70;99.90;;;;;;1957114;72;28578;-87
2023/10/17 07:31:16;;;;;;;3.10;0.57;;;9.70;99.90;;;;;;1906416;75;25292;-87
2023/10/17 07:34:18;;;;;;;3.77;0.70;;;9.70;99.90;;;;;;1902617;73;25201;-87
2023/10/17 07:40:00;;;;;;;2.00;0.40;;;9.60;99.90;;;;;;1940147;72;27075;-87
2023/10/17 07:45:24;;;;;;;2.73;0.70;;;9.50;99.90;;;;;;1936049;72;26859;-87
2023/10/17 07:48:23;;;;;;;5.57;0.70;;;9.50;99.90;;;;;;1892019;75;25324;-87
2023/10/17 07:51:15;;;;;;;3.60;0.70;;;9.70;99.90;;;;;;1891861;75;25337;-87
2023/10/17 07:54:07;;;;;;;0.83;0.50;;;9.60;99.90;;;;;;1891557;75;25281;-87
2023/10/17 07:56:54;;;;;;;5.57;0.70;;;9.70;99.90;;;;;;1895784;75;25714;-87
2023/10/17 08:02:31;;;;;;;3.00;0.70;;;10.00;99.90;;;;;;1935589;72;27284;-87
2023/10/17 08:05:23;;;;;;;2.73;0.63;;;10.00;99.90;;;;;;1907225;73;25749;-88
2023/10/17 08:11:00;;;;;;;4.17;0.80;;;10.00;99.90;;;;;;1958732;72;27050;-87
2023/10/17 08:13:48;;;;;;;3.70;0.90;;;10.10;99.90;;;;;;1885734;73;25708;-87
2023/10/17 08:19:21;;;;;;;3.27;0.70;;;10.20;99.90;;;;;;1937281;72;26501;-87
2023/10/17 08:22:17;;;;;;;3.13;0.80;;;10.10;99.90;;;;;;1894089;75;25355;-87
2023/10/17 08:25:05;;;;;;;4.20;1.00;;;10.20;99.90;;;;;;1900797;74;25792;-87
2023/10/17 08:27:54;;;;;;;0.93;0.63;;;10.10;99.90;;;;;;1916279;75;25220;-87
2023/10/17 08:30:51;;;;;;;4.07;0.80;;;10.10;99.90;;;;;;1897543;75;25743;-87
2023/10/17 08:33:40;;;;;;;3.87;0.80;;;10.10;99.90;;;;;;1914032;75;25303;-87
2023/10/17 08:36:42;;;;;;;3.23;0.80;;;10.10;99.90;;;;;;1914711;75;25359;-88
2023/10/17 08:42:30;;;;;;;2.77;0.80;;;10.10;99.90;;;;;;1907405;74;25262;-88
2023/10/17 08:45:24;;;;;;;6.77;1.00;;;10.20;99.90;;;;;;1904010;75;25251;-88
2023/10/17 08:48:11;;;;;;;2.63;0.90;;;10.30;99.90;;;;;;1907944;75;25316;-88
2023/10/17 08:51:00;;;;;;;1.53;0.80;;;10.20;99.90;;;;;;1903070;75;25216;-88
2023/10/17 08:53:49;;;;;;;2.30;0.70;;;10.30;99.90;;;;;;1907411;75;25258;-88
2023/10/17 08:56:39;;;;;;;3.23;0.53;;;10.30;99.90;;;;;;1910826;74;25237;-88
2023/10/17 08:59:58;;;;;;;5.53;0.70;;;10.30;99.90;;;;;;1897299;74;25223;-88
2023/10/17 09:05:06;;;;;;;1.50;0.80;;;10.50;99.90;;;;;;1952648;72;27588;-89
2023/10/17 09:10:43;;;;;;;5.60;0.93;;;10.60;99.90;;;;;;1945561;72;27092;-89
2023/10/17 09:14:10;;;;;;;6.57;0.97;;;10.70;99.90;;;;;;1853371;76;25189;-89
2023/10/17 09:16:41;;;;;;;2.53;0.87;;;10.80;99.90;;;;;;1809271;78;25387;-87
2023/10/17 09:19:27;;;;;;;3.07;0.70;;;10.80;99.90;;;;;;1900099;73;25282;-89
2023/10/17 09:22:21;;;;;;;1.17;0.60;;;10.90;99.90;;;;;;1897156;75;25194;-89
2023/10/17 09:25:26;;;;;;;4.27;0.80;;;11.00;99.90;;;;;;1839083;76;25950;-89
2023/10/17 09:28:17;;;;;;;3.03;0.93;;;11.00;99.90;;;;;;1854817;75;25897;-89
2023/10/17 09:31:09;;;;;;;2.80;0.60;;;11.00;99.90;;;;;;1868205;75;25323;-89
2023/10/17 09:34:00;;;;;;;4.07;0.97;;;11.10;99.90;;;;;;1861699;76;25247;-89
2023/10/17 09:40:11;;;;;;;2.53;0.60;;;10.90;99.90;;;;;;1961530;71;26992;-87
2023/10/17 09:42:57;;;;;;;2.53;0.50;;;10.90;99.90;;;;;;1947528;72;25333;-88
2023/10/17 09:45:48;;;;;;;3.10;0.77;;;10.90;99.90;;;;;;2024926;70;25212;-87
2023/10/17 09:48:37;;;;;;;2.50;0.80;;;10.90;99.90;;;;;;2020158;70;25222;-87
2023/10/17 10:15:52;;;;;;;1.83;0.70;;;11.10;99.90;;;;;;1949529;72;27036;-88
2023/10/17 10:18:58;;;;;;;2.70;0.90;;;12.10;99.90;;;;;;1927140;73;25294;-88
2023/10/17 10:21:58;;;;;;;9.33;0.80;;;12.20;99.90;;;;;;1913169;73;25635;-88
2023/10/17 10:24:49;;;;;;;0.60;0.60;;;12.20;99.90;;;;;;1927469;73;25266;-88
2023/10/17 10:27:38;;;;;;;2.67;1.00;;;12.00;99.90;;;;;;1941420;73;25206;-88
2023/10/17 10:30:43;;;;;;;5.40;0.90;;;12.00;99.90;;;;;;1922255;73;25769;-88
2023/10/17 10:33:30;;;;;;;5.37;0.90;;;11.90;99.90;;;;;;1938297;73;25275;-88
2023/10/17 10:36:19;;;;;;;4.23;0.90;;;11.80;99.90;;;;;;1935404;73;25400;-88
2023/10/17 10:39:18;;;;;;;4.87;0.93;;;11.70;99.90;;;;;;1935599;73;25232;-88
2023/10/17 10:44:44;;;;;;;4.53;0.67;;;11.90;99.90;;;;;;1927958;72;27147;-87
2023/10/17 10:50:12;;;;;;;3.80;0.90;;;11.90;99.90;;;;;;1945953;72;26989;-87
2023/10/17 10:55:56;;;;;;;0.93;0.60;;;11.90;99.90;;;;;;1949498;72;27539;-88
2023/10/17 10:58:47;;;;;;;4.07;0.83;;;12.00;99.90;;;;;;1933057;73;25266;-88
2023/10/17 11:01:36;;;;;;;5.50;0.93;;;11.90;99.90;;;;;;1919224;73;25179;-87
2023/10/17 11:04:25;;;;;;;1.10;0.67;;;12.00;99.90;;;;;;1920061;73;25218;-88
2023/10/17 11:07:23;;;;;;;5.63;0.67;;;11.90;99.90;;;;;;1916248;75;25236;-87
2023/10/17 11:10:13;;;;;;;4.57;0.80;;;12.00;99.90;;;;;;1922183;73;25340;-87
2023/10/17 11:13:03;;;;;;;4.27;0.80;;;12.00;99.90;;;;;;1917755;73;25305;-87
2023/10/17 11:18:38;;;;;;;1.93;0.70;;;11.90;99.90;;;;;;1942377;72;27035;-88
2023/10/17 11:21:26;;;;;;;3.13;0.73;;;12.00;99.90;;;;;;1898037;74;25296;-88
2023/10/17 11:24:17;;;;;;;2.97;0.90;;;12.00;99.90;;;;;;1888317;75;25769;-88
2023/10/17 11:27:06;;;;;;;4.83;0.90;;;11.90;99.90;;;;;;1901917;74;25232;-87
2023/10/17 11:29:59;;;;;;;6.63;0.93;;;11.90;99.90;;;;;;1912743;74;25343;-85
2023/10/17 11:32:45;;;;;;;5.40;0.97;;;11.90;99.90;;;;;;1897411;75;25269;-88
2023/10/17 11:48:40;;;;;;;3.37;0.93;;;11.90;99.90;;;;;;1971009;72;26395;-88
2023/10/17 12:04:30;;;;;;;2.43;0.73;;;11.80;99.90;;;;;;1868641;74;27180;-87
2023/10/17 12:10:04;;;;;;;3.23;0.90;;;11.60;99.90;;;;;;1935268;72;27017;-87
2023/10/17 12:12:58;;;;;;;0.87;0.70;;;11.70;99.90;;;;;;1867933;76;25253;-89
2023/10/17 12:15:43;;;;;;;0.67;0.67;;;11.60;99.90;;;;;;1824193;78;25273;-87
2023/10/17 12:18:33;;;;;;;3.70;0.70;;;11.60;99.90;;;;;;1899247;75;25543;-88
2023/10/17 12:21:21;;;;;;;5.63;1.00;;;11.60;99.90;;;;;;1909228;75;25210;-87
2023/10/17 12:24:12;;;;;;;3.27;0.63;;;11.60;99.90;;;;;;1863245;76;25343;-87
2023/10/17 12:27:01;;;;;;;0.87;0.70;;;11.70;99.90;;;;;;1839489;77;25238;-87
2023/10/17 12:29:50;;;;;;;3.13;0.80;;;11.70;99.90;;;;;;1877903;75;25822;-87
2023/10/17 12:35:21;;;;;;;2.40;0.90;;;11.80;99.90;;;;;;1936387;72;26955;-87
2023/10/17 12:38:14;;;;;;;3.90;0.97;;;11.80;99.90;;;;;;1902736;75;25724;-87
2023/10/17 12:40:57;;;;;;;1.60;0.70;;;11.90;99.90;;;;;;1883583;76;25238;-87
2023/10/17 12:43:46;;;;;;;0.97;0.60;;;11.90;99.90;;;;;;1860584;76;25306;-87
2023/10/17 12:46:35;;;;;;;3.43;0.87;;;12.00;99.90;;;;;;1856157;76;25210;-87
2023/10/17 12:49:24;;;;;;;1.33;0.70;;;11.90;99.90;;;;;;1861314;76;25249;-87
2023/10/17 12:52:13;;;;;;;6.03;0.93;;;11.90;99.90;;;;;;1863082;76;25546;-87
2023/10/17 12:55:03;;;;;;;0.70;0.60;;;11.80;99.90;;;;;;1874228;76;25273;-87
2023/10/17 12:57:52;;;;;;;1.77;0.90;;;11.90;99.90;;;;;;1852158;76;25337;-87
2023/10/17 13:00:42;;;;;;;1.30;0.80;;;11.90;99.90;;;;;;1855254;76;25267;-87
2023/10/17 13:03:33;;;;;;;1.97;0.60;;;11.90;99.90;;;;;;1825182;77;25895;-87
2023/10/17 13:06:24;;;;;;;0.60;0.60;;;11.90;99.90;;;;;;1868782;76;25756;-87
2023/10/17 13:09:12;;;;;;;1.90;0.70;;;11.90;99.90;;;;;;1871495;76;25332;-87
2023/10/17 13:12:00;;;;;;;1.40;0.70;;;12.00;99.90;;;;;;1856989;76;25756;-87
2023/10/17 13:14:50;;;;;;;1.97;0.63;;;12.00;99.90;;;;;;1863034;76;25279;-87
2023/10/17 13:20:28;;;;;;;3.10;0.80;;;12.10;99.90;;;;;;1942223;72;27066;-88
2023/10/17 13:23:12;;;;;;;1.93;0.57;;;12.10;99.90;;;;;;1936363;73;25233;-88
2023/10/17 13:26:05;;;;;;;2.47;0.73;;;12.10;99.90;;;;;;1935815;73;25278;-88
2023/10/17 13:28:53;;;;;;;0.97;0.60;;;12.10;99.90;;;;;;1930091;73;25725;-88
2023/10/17 13:31:41;;;;;;;3.40;0.80;;;12.10;99.90;;;;;;1935721;73;25317;-88
2023/10/17 13:34:31;;;;;;;9.87;1.07;;;12.10;99.90;;;;;;1941689;73;25751;-88
2023/10/17 13:37:19;;;;;;;5.50;1.00;;;12.10;99.90;;;;;;1926735;73;25262;-87
2023/10/17 13:40:10;;;;;;;3.23;0.90;;;12.00;99.90;;;;;;1934270;73;25637;-87
2023/10/17 13:43:00;;;;;;;2.00;0.70;;;12.00;99.90;;;;;;1884235;75;25302;-88
2023/10/17 13:45:49;;;;;;;5.90;0.63;;;11.90;99.90;;;;;;1899982;74;25312;-87
2023/10/17 13:48:38;;;;;;;2.97;0.80;;;11.80;99.90;;;;;;1908640;73;25677;-87
2023/10/17 13:51:34;;;;;;;1.80;0.60;;;11.80;99.90;;;;;;1914427;73;25253;-87
2023/10/17 13:56:57;;;;;;;8.93;0.80;;;11.80;99.90;;;;;;1931729;72;27278;-87
2023/10/17 14:02:34;;;;;;;7.43;0.97;;;11.80;99.90;;;;;;1948968;72;27508;-87
2023/10/17 14:05:23;;;;;;;3.20;0.80;;;12.00;99.90;;;;;;1872017;76;25754;-87
2023/10/17 14:08:13;;;;;;;5.50;0.70;;;12.10;99.90;;;;;;1859950;76;25772;-89
2023/10/17 14:13:54;;;;;;;2.17;1.20;;;12.20;99.90;;;;;;1944546;72;27154;-87
2023/10/17 14:16:42;;;;;;;4.53;0.87;;;12.20;99.90;;;;;;1919786;73;25330;-88
2023/10/17 14:19:44;;;;;;;2.17;0.63;;;12.20;99.90;;;;;;1923364;73;25263;-87
2023/10/17 14:22:44;;;;;;;1.50;0.67;;;12.10;99.90;;;;;;1918088;73;25716;-87
2023/10/17 14:28:37;;;;;;;3.23;1.33;;;12.00;99.90;;;;;;1925077;73;25241;-87
2023/10/17 14:31:26;;;;;;;3.60;0.90;;;12.00;99.90;;;;;;1932306;73;25180;-87
2023/10/17 14:34:15;;;;;;;4.47;0.93;;;11.90;99.90;;;;;;1936836;73;25233;-88
2023/10/17 14:37:05;;;;;;;1.33;0.53;;;11.80;99.90;;;;;;1921990;73;25543;-88
2023/10/17 14:39:54;;;;;;;5.70;0.93;;;11.80;99.90;;;;;;1922086;73;25281;-87
2023/10/17 14:42:44;;;;;;;1.97;0.77;;;11.70;99.90;;;;;;1904587;73;25247;-87
2023/10/17 14:45:34;;;;;;;2.90;0.80;;;11.70;99.90;;;;;;1906371;75;25209;-87
2023/10/17 14:51:08;;;;;;;3.30;0.87;;;11.60;99.90;;;;;;1953893;72;27048;-87
2023/10/17 14:53:57;;;;;;;3.60;0.70;;;11.60;99.90;;;;;;1905715;75;25261;-87
2023/10/17 14:59:29;;;;;;;5.63;1.00;;;11.70;99.90;;;;;;1938456;72;27107;-87
2023/10/17 15:02:19;;;;;;;2.90;1.00;;;11.70;99.90;;;;;;1912297;73;25218;-87
2023/10/17 15:05:11;;;;;;;5.73;1.03;;;11.70;99.90;;;;;;1871010;76;25714;-87
2023/10/17 15:07:59;;;;;;;3.23;0.83;;;11.70;99.90;;;;;;1816894;78;25413;-86
2023/10/17 15:10:49;;;;;;;3.93;1.07;;;11.70;99.90;;;;;;1913576;73;25268;-87
2023/10/17 15:13:38;;;;;;;4.53;1.00;;;11.70;99.90;;;;;;1919059;73;25325;-87
2023/10/17 15:16:27;;;;;;;7.80;1.23;;;11.70;99.90;;;;;;1918210;73;25300;-87
2023/10/17 15:19:16;;;;;;;4.87;1.17;;;11.60;99.90;;;;;;1851703;76;25323;-87
2023/10/17 15:22:04;;;;;;;8.13;1.40;;;11.50;99.90;;;;;;1856143;76;25214;-87
2023/10/17 15:24:53;;;;;;;4.63;1.37;;;11.40;99.90;;;;;;1864724;76;25263;-87
2023/10/17 15:27:43;;;;;;;5.60;1.20;;;11.30;99.90;;;;;;1851045;76;25230;-87
2023/10/17 15:30:34;;;;;;;4.57;1.47;;;11.30;99.90;;;;;;1886383;75;25750;-87
2023/10/17 15:36:04;;;;;;;1.43;0.90;;;11.10;99.90;;;;;;1937293;72;27117;-87
2023/10/17 15:38:53;;;;;;;5.10;1.40;;;11.10;99.90;;;;;;1888091;75;25244;-88
2023/10/17 15:47:38;;;;;;;1.67;0.80;;;11.00;99.90;;;;;;1939876;72;27572;-87
2023/10/17 15:50:27;;;;;;;5.17;1.20;;;11.00;99.90;;;;;;1903362;75;25304;-88
2023/10/17 15:53:16;;;;;;;1.33;0.90;;;10.90;99.90;;;;;;1904795;75;25331;-87
2023/10/17 15:56:05;;;;;;;3.93;1.40;;;10.80;99.90;;;;;;1898171;75;25642;-88
2023/10/17 15:58:53;;;;;;;4.73;1.10;;;10.80;99.90;;;;;;1905637;73;25221;-88
2023/10/17 16:01:42;;;;;;;3.77;1.00;;;10.70;99.90;;;;;;1896458;75;25271;-87
2023/10/17 16:04:31;;;;;;;4.67;1.20;;;10.70;99.90;;;;;;1871873;76;25230;-87
2023/10/17 16:07:20;;;;;;;5.70;1.00;;;10.70;99.90;;;;;;1844516;77;25230;-87
2023/10/17 16:10:13;;;;;;;6.63;1.10;;;10.70;99.90;;;;;;1868393;76;25611;-87
2023/10/17 16:13:01;;;;;;;5.23;1.40;;;10.70;99.90;;;;;;1826120;78;25783;-88
2023/10/17 16:15:50;;;;;;;6.77;1.40;;;10.60;99.90;;;;;;1897479;75;25306;-87
2023/10/17 16:18:39;;;;;;;4.07;1.77;;;10.60;99.90;;;;;;1851697;76;25743;-88
2023/10/17 16:21:27;;;;;;;5.07;1.60;;;10.50;99.90;;;;;;1818767;78;25192;-88
2023/10/17 16:27:00;;;;;;;2.00;1.50;;;10.40;99.90;;;;;;1937787;72;28428;-88
2023/10/17 16:29:49;;;;;;;5.93;1.50;;;10.40;99.90;;;;;;1897835;75;25316;-88
2023/10/17 16:32:38;;;;;;;7.97;1.73;;;10.30;99.90;;;;;;1883628;75;25277;-88
2023/10/17 16:35:27;;;;;;;9.57;2.10;;;10.30;99.90;;;;;;1915393;73;25231;-88
2023/10/17 16:38:16;;;;;;;6.57;2.00;;;10.30;99.90;;;;;;1853648;76;25373;-88
2023/10/17 16:41:05;;;;;;;5.10;1.93;;;10.20;99.90;;;;;;1822951;77;25339;-90
2023/10/17 16:43:53;;;;;;;4.00;1.67;;;10.20;99.90;;;;;;1864748;74;25219;-88
2023/10/17 16:46:42;;;;;;;6.13;1.63;;;10.20;99.90;;;;;;1845940;78;25208;-88
2023/10/17 16:49:33;;;;;;;4.33;1.73;;;10.30;99.90;;;;;;1796072;80;25272;-88
2023/10/17 16:52:22;;;;;;;4.77;1.70;;;10.30;99.90;;;;;;1881689;74;25227;-88
2023/10/17 16:55:13;;;;;;;10.03;1.70;;;10.30;99.90;;;;;;1882318;76;25222;-88
2023/10/17 16:58:01;;;;;;;5.53;2.10;;;10.30;99.90;;;;;;1836830;77;25782;-88
2023/10/17 17:00:51;;;;;;;10.13;1.80;;;10.30;99.90;;;;;;1784425;79;25345;-88
2023/10/17 17:07:00;;;;;;;5.97;1.30;;;10.20;99.90;;;;;;1982299;71;26426;-87
2023/10/17 17:09:48;;;;;;;5.97;1.57;;;10.10;99.90;;;;;;1956644;70;25333;-88
2023/10/17 17:15:19;;;;;;;5.90;1.20;;;10.10;99.90;;;;;;1940052;72;26636;-87
2023/10/17 17:18:09;;;;;;;6.60;1.87;;;10.00;99.90;;;;;;1899330;75;25177;-88
2023/10/17 17:20:57;;;;;;;7.97;1.63;;;9.90;99.90;;;;;;1904881;75;25176;-88
2023/10/17 17:23:46;;;;;;;7.27;2.00;;;9.90;99.90;;;;;;1902362;75;25180;-87
2023/10/17 17:26:35;;;;;;;5.93;2.37;;;9.90;99.90;;;;;;1900482;75;25215;-88
2023/10/17 17:32:05;;;;;;;15.03;3.53;;;9.70;99.90;;;;;;1944296;72;27072;-87
2023/10/17 17:37:39;;;;;;;8.23;2.50;;;9.60;99.90;;;;;;1931803;72;27138;-88
2023/10/17 17:40:28;;;;;;;9.00;3.07;;;9.60;99.90;;;;;;1862113;76;25266;-87
2023/10/17 17:43:18;;;;;;;9.80;2.80;;;9.60;99.90;;;;;;1828776;77;25362;-88
2023/10/17 17:49:01;;;;;;;10.27;2.90;;;9.50;99.90;;;;;;1948082;72;26865;-87
2023/10/17 17:51:50;;;;;;;9.90;2.87;;;9.60;99.90;;;;;;1939492;73;25618;-90
2023/10/17 17:54:39;;;;;;;11.83;2.73;;;9.60;99.90;;;;;;1934852;73;25332;-90
2023/10/17 17:57:28;;;;;;;10.27;3.20;;;9.60;99.90;;;;;;1923188;73;25722;-89
2023/10/17 18:02:56;;;;;;;12.83;3.57;;;9.50;99.90;;;;;;1936154;72;27072;-88
2023/10/17 18:05:45;;;;;;;20.57;6.57;;;9.50;99.90;;;;;;1905517;75;25595;-87
2023/10/17 18:08:34;;;;;;;21.27;6.80;;;9.40;99.90;;;;;;1843043;76;25797;-87
2023/10/17 18:11:31;;;;;;;19.73;6.47;;;9.40;99.90;;;;;;1832730;76;25363;-87
2023/10/17 18:14:22;;;;;;;16.73;5.90;;;9.40;99.90;;;;;;1843655;75;25253;-88
2023/10/17 18:17:10;;;;;;;15.67;5.17;;;9.30;99.90;;;;;;1848896;76;25266;-88
2023/10/17 18:19:59;;;;;;;15.23;4.93;;;9.20;99.90;;;;;;1872954;76;25795;-88
2023/10/17 18:22:48;;;;;;;17.77;5.30;;;9.10;99.90;;;;;;1851610;76;25242;-88
2023/10/17 18:25:39;;;;;;;13.47;5.17;;;8.90;99.90;;;;;;1872624;76;25226;-88
2023/10/17 18:28:28;;;;;;;18.13;4.83;;;8.80;99.90;;;;;;1838895;76;25758;-88
2023/10/17 18:31:18;;;;;;;20.53;4.87;;;8.70;99.90;;;;;;1830041;76;25865;-87
2023/10/17 18:34:07;;;;;;;15.07;4.40;;;8.70;99.90;;;;;;1829869;78;25804;-88
2023/10/17 18:36:56;;;;;;;10.17;4.07;;;8.60;99.90;;;;;;1864372;75;25676;-88
2023/10/17 18:39:45;;;;;;;12.17;4.43;;;8.60;99.90;;;;;;1877589;75;25225;-88
2023/10/17 18:42:33;;;;;;;17.20;4.50;;;8.60;99.90;;;;;;1871966;75;25825;-88
2023/10/17 18:48:07;;;;;;;16.23;3.70;;;8.40;99.90;;;;;;1926183;72;27142;-88
2023/10/17 18:51:02;;;;;;;8.90;3.03;;;8.40;99.90;;;;;;1874969;75;25252;-88
2023/10/17 18:53:52;;;;;;;17.40;2.73;;;8.30;99.90;;;;;;1878018;75;25266;-90
2023/10/17 18:56:41;;;;;;;5.90;2.53;;;8.20;99.90;;;;;;1871967;75;25226;-88
2023/10/17 18:59:30;;;;;;;9.37;3.20;;;8.10;99.90;;;;;;1871675;75;25245;-89
2023/10/17 19:02:18;;;;;;;7.67;2.67;;;8.10;99.90;;;;;;1860866;75;25254;-89
2023/10/17 19:05:09;;;;;;;12.27;2.90;;;8.00;99.90;;;;;;1868223;75;25210;-89
2023/10/17 19:07:57;;;;;;;10.10;2.63;;;7.90;99.90;;;;;;1866237;75;25177;-89
2023/10/17 19:10:47;;;;;;;10.23;2.50;;;7.80;99.90;;;;;;1878620;75;25259;-89
2023/10/17 19:13:36;;;;;;;2.47;1.33;;;7.70;99.90;;;;;;1879243;75;25243;-89
2023/10/17 19:16:25;;;;;;;9.10;1.73;;;7.60;99.90;;;;;;1877148;76;25706;-89